Time;durP1;ratioP1;P1;durP2;ratioP2;P2;SDS_P1;SDS_P2;PMS_P1;PMS_P2;Temp;Humidity;BMP_temperature;BMP_pressure;BME280_temperature;BME280_humidity;BME280_pressure;Samples;Min_cycle;Max_cycle;Signal;HPM_P1;HPM_P2
2021/07/18 00:02:36;;;;;;;0.20;0.20;;;;;;;15.87;87.58;101514.81;5035373;28;20045;-90
2021/07/18 00:05:14;;;;;;;0.10;0.10;;;;;;;15.84;87.24;101502.53;5044840;28;20056;-89
2021/07/18 00:07:43;;;;;;;0.10;0.10;;;;;;;15.78;88.07;101514.63;5022055;28;20049;-90
2021/07/18 00:10:27;;;;;;;0.10;0.10;;;;;;;15.79;87.62;101499.81;5043589;28;20049;-90
2021/07/18 00:13:00;;;;;;;0.13;0.13;;;;;;;15.80;87.67;101518.75;5029088;28;20045;-89
2021/07/18 00:15:28;;;;;;;0.10;0.10;;;;;;;15.61;88.40;101506.91;5032435;28;20440;-89
2021/07/18 00:18:03;;;;;;;0.20;0.20;;;;;;;15.69;88.39;101516.41;5027848;28;20052;-89
2021/07/18 00:20:43;;;;;;;0.10;0.10;;;;;;;15.63;88.99;101515.66;5041777;28;20045;-89
2021/07/18 00:23:17;;;;;;;0.20;0.20;;;;;;;15.65;88.54;101513.44;5037810;28;20059;-90
2021/07/18 00:25:50;;;;;;;0.10;0.10;;;;;;;15.63;88.64;101505.50;5035532;28;20705;-90
2021/07/18 00:28:28;;;;;;;0.10;0.10;;;;;;;15.64;88.82;101509.88;5036295;28;20052;-90
2021/07/18 00:30:59;;;;;;;0.20;0.20;;;;;;;15.62;88.62;101512.09;5022551;28;20053;-88
2021/07/18 00:33:29;;;;;;;0.13;0.13;;;;;;;15.62;88.61;101503.06;5041632;28;20045;-90
2021/07/18 00:36:02;;;;;;;0.10;0.10;;;;;;;15.66;88.23;101506.84;5051686;28;20041;-88
2021/07/18 00:38:36;;;;;;;0.20;0.20;;;;;;;15.58;88.69;101510.25;5056093;28;20049;-90
2021/07/18 00:41:04;;;;;;;0.20;0.20;;;;;;;15.63;88.14;101513.75;5021189;28;20055;-90
2021/07/18 00:43:37;;;;;;;0.20;0.20;;;;;;;15.63;88.38;101507.41;5035994;28;20049;-89
2021/07/18 00:46:15;;;;;;;0.13;0.13;;;;;;;15.57;88.66;101505.88;5045164;28;20413;-90
2021/07/18 00:48:48;;;;;;;0.20;0.20;;;;;;;15.48;89.02;101495.53;5030206;28;20045;-90
2021/07/18 00:51:21;;;;;;;0.10;0.10;;;;;;;15.51;88.79;101516.09;5042661;28;20052;-89
2021/07/18 00:53:49;;;;;;;0.20;0.20;;;;;;;15.42;89.48;101512.34;5045162;28;20049;-89
2021/07/18 00:56:29;;;;;;;0.10;0.10;;;;;;;15.46;88.98;101516.94;5036364;28;20406;-89
2021/07/18 00:58:59;;;;;;;0.10;0.10;;;;;;;15.36;89.33;101511.59;5019345;28;20419;-90
2021/07/18 01:01:32;;;;;;;0.20;0.20;;;;;;;15.45;89.62;101525.47;5029178;28;20045;-90
2021/07/18 01:04:08;;;;;;;0.10;0.10;;;;;;;15.38;89.38;101509.34;5028865;28;20053;-90
2021/07/18 01:06:41;;;;;;;0.20;0.20;;;;;;;15.39;89.39;101515.69;5050847;28;20049;-90
2021/07/18 01:09:15;;;;;;;0.20;0.20;;;;;;;15.34;89.71;101511.03;5031888;28;20046;-89
2021/07/18 01:11:49;;;;;;;0.10;0.10;;;;;;;15.45;89.27;101514.50;5029741;28;20382;-89
2021/07/18 01:14:20;;;;;;;0.20;0.20;;;;;;;15.11;89.70;101479.78;5043820;28;20061;-90
2021/07/18 01:16:48;;;;;;;0.20;0.20;;;;;;;15.37;89.96;101515.97;5037263;28;20079;-90
2021/07/18 01:19:29;;;;;;;0.20;0.20;;;;;;;15.23;90.02;101509.53;5030871;28;20069;-90
2021/07/18 01:22:04;;;;;;;0.10;0.10;;;;;;;15.29;90.49;101528.38;5048693;28;20045;-88
2021/07/18 01:24:38;;;;;;;0.10;0.10;;;;;;;15.04;90.74;101490.25;5048797;28;20045;-90
2021/07/18 01:27:08;;;;;;;0.20;0.20;;;;;;;15.25;90.75;101532.81;5035012;28;20068;-90
2021/07/18 01:29:42;;;;;;;0.20;0.20;;;;;;;15.03;90.64;101492.19;5021583;28;20069;-90
2021/07/18 01:32:10;;;;;;;0.10;0.10;;;;;;;15.26;90.73;101528.97;5044259;28;20047;-89
2021/07/18 01:34:43;;;;;;;0.10;0.10;;;;;;;15.25;91.08;101538.31;5029613;28;20056;-89
2021/07/18 01:37:18;;;;;;;0.15;0.15;;;;;;;15.18;90.89;101528.78;5027964;28;20068;-88
2021/07/18 01:39:51;;;;;;;0.10;0.10;;;;;;;15.22;90.73;101527.09;5063652;28;20037;-90
2021/07/18 01:42:20;;;;;;;0.10;0.10;;;;;;;15.16;91.11;101534.56;5040275;28;20060;-89
2021/07/18 01:44:54;;;;;;;0.17;0.17;;;;;;;15.19;90.84;101539.47;5052782;28;20041;-90
2021/07/18 01:47:27;;;;;;;0.20;0.20;;;;;;;15.14;91.05;101539.53;5024464;28;20390;-88
2021/07/18 01:49:55;;;;;;;0.10;0.10;;;;;;;15.11;91.31;101545.59;5031460;28;20436;-89
2021/07/18 01:52:26;;;;;;;0.10;0.10;;;;;;;15.07;91.76;101544.53;5040516;28;20041;-89
2021/07/18 01:55:05;;;;;;;0.10;0.10;;;;;;;15.12;91.23;101548.03;5045170;28;20053;-90
2021/07/18 01:57:39;;;;;;;0.17;0.17;;;;;;;15.08;91.24;101530.53;5046333;28;20083;-89
2021/07/18 02:00:11;;;;;;;0.15;0.15;;;;;;;15.23;90.36;101546.03;5034134;28;20045;-89
2021/07/18 02:02:46;;;;;;;0.20;0.20;;;;;;;15.15;91.23;101543.91;5024801;28;20052;-90
2021/07/18 02:05:21;;;;;;;0.10;0.10;;;;;;;14.97;91.18;101523.53;5023566;28;20078;-90
2021/07/18 02:07:58;;;;;;;0.10;0.10;;;;;;;14.96;92.20;101546.56;5019304;28;20049;-89
2021/07/18 02:10:27;;;;;;;0.10;0.10;;;;;;;15.00;92.11;101533.91;5050018;28;20053;-89
2021/07/18 02:13:01;;;;;;;0.10;0.10;;;;;;;15.05;91.36;101541.25;5029892;28;20449;-88
2021/07/18 02:15:34;;;;;;;0.10;0.10;;;;;;;14.97;91.90;101531.75;5034657;28;20052;-88
2021/07/18 02:18:08;;;;;;;0.15;0.15;;;;;;;15.09;91.39;101548.63;5029160;28;20045;-89
2021/07/18 02:20:42;;;;;;;0.20;0.20;;;;;;;14.93;92.07;101541.66;5046450;28;20076;-89
2021/07/18 02:23:12;;;;;;;0.10;0.10;;;;;;;14.88;92.25;101537.00;5023097;28;20053;-89
2021/07/18 02:25:45;;;;;;;0.38;0.20;;;;;;;14.77;92.95;101524.53;5042436;28;20049;-90
2021/07/18 02:28:19;;;;;;;0.10;0.10;;;;;;;14.89;92.15;101532.38;5051623;28;20409;-89
2021/07/18 02:30:57;;;;;;;0.10;0.10;;;;;;;14.81;92.48;101531.06;5040483;28;20053;-89
2021/07/18 02:33:30;;;;;;;0.10;0.10;;;;;;;14.78;93.13;101526.16;5056364;28;20049;-90
2021/07/18 02:36:05;;;;;;;0.10;0.10;;;;;;;14.79;92.49;101528.59;5043682;28;20414;-89
2021/07/18 02:38:40;;;;;;;0.20;0.20;;;;;;;14.89;92.54;101522.22;5032447;28;20048;-90
2021/07/18 02:41:08;;;;;;;0.20;0.20;;;;;;;14.81;92.76;101513.81;5046005;28;20072;-89
2021/07/18 02:43:36;;;;;;;0.20;0.20;;;;;;;14.73;93.86;101507.00;5044072;28;20053;-91
2021/07/18 02:46:10;;;;;;;0.15;0.15;;;;;;;14.72;94.14;101522.66;5045225;28;20623;-89
2021/07/18 02:48:39;;;;;;;0.20;0.20;;;;;;;14.78;94.13;101521.50;5040609;28;20052;-88
2021/07/18 02:51:07;;;;;;;0.10;0.10;;;;;;;14.76;93.87;101518.22;5048987;28;20045;-87
2021/07/18 02:53:44;;;;;;;0.20;0.20;;;;;;;14.73;94.35;101517.97;5024104;28;20049;-88
2021/07/18 02:56:19;;;;;;;0.20;0.20;;;;;;;14.80;94.24;101512.97;5045843;28;20080;-88
2021/07/18 02:59:18;;;;;;;0.20;0.20;;;;;;;14.76;93.84;101517.41;5021915;28;20603;-89
2021/07/18 03:02:02;;;;;;;0.10;0.10;;;;;;;14.73;94.19;101510.56;5016747;28;20052;-89
2021/07/18 03:04:35;;;;;;;0.10;0.10;;;;;;;14.78;94.12;101504.25;5046104;28;20040;-89
2021/07/18 03:07:08;;;;;;;0.20;0.20;;;;;;;14.66;93.93;101498.31;5027664;28;20401;-90
2021/07/18 03:09:44;;;;;;;0.20;0.20;;;;;;;14.77;94.01;101508.06;5041343;28;20686;-89
2021/07/18 03:12:17;;;;;;;0.10;0.10;;;;;;;14.77;94.78;101503.41;5034272;28;20041;-89
2021/07/18 03:14:52;;;;;;;0.15;0.15;;;;;;;14.79;94.31;101503.94;5053627;28;20037;-90
2021/07/18 03:17:25;;;;;;;0.20;0.20;;;;;;;14.81;94.02;101502.84;5050081;28;20048;-87
2021/07/18 03:19:59;;;;;;;0.10;0.10;;;;;;;14.77;94.81;101508.88;5024281;28;20060;-89
2021/07/18 03:22:33;;;;;;;0.20;0.20;;;;;;;14.69;94.66;101506.75;5046276;28;20056;-89
2021/07/18 03:25:04;;;;;;;0.10;0.10;;;;;;;14.75;95.02;101513.84;5049176;28;20049;-90
2021/07/18 03:27:37;;;;;;;0.20;0.20;;;;;;;14.73;95.03;101507.00;5046294;28;20048;-88
2021/07/18 03:30:09;;;;;;;0.20;0.20;;;;;;;14.74;94.94;101501.25;5026084;28;20072;-88
2021/07/18 03:32:42;;;;;;;0.20;0.20;;;;;;;14.81;94.77;101505.59;5043431;28;20045;-90
2021/07/18 03:35:16;;;;;;;0.20;0.20;;;;;;;14.89;94.92;101499.50;5021216;28;20049;-89
2021/07/18 03:37:44;;;;;;;0.20;0.20;;;;;;;14.86;94.71;101487.19;5032103;28;20052;-89
2021/07/18 03:40:22;;;;;;;0.17;0.17;;;;;;;14.77;94.70;101486.16;5016476;28;20052;-88
2021/07/18 03:42:55;;;;;;;0.20;0.20;;;;;;;14.78;94.96;101488.59;5031175;28;20045;-89
2021/07/18 03:45:24;;;;;;;0.20;0.20;;;;;;;14.88;95.06;101489.63;5048498;28;20424;-90
2021/07/18 03:48:02;;;;;;;0.20;0.20;;;;;;;14.91;95.19;101494.50;5024322;28;20048;-88
2021/07/18 03:50:36;;;;;;;0.10;0.10;;;;;;;14.94;94.84;101486.53;5029050;28;20048;-89
2021/07/18 03:53:10;;;;;;;0.20;0.20;;;;;;;15.00;94.70;101502.91;5028762;28;20389;-88
2021/07/18 03:55:45;;;;;;;0.20;0.20;;;;;;;15.01;94.79;101490.84;5020087;28;20060;-90
2021/07/18 03:58:22;;;;;;;0.20;0.20;;;;;;;15.03;94.50;101499.63;5019552;28;20068;-89
2021/07/18 04:00:56;;;;;;;;;;;;;;;15.06;94.49;101502.56;5048520;28;20047;-90
2021/07/18 04:03:24;;;;;;;0.10;0.10;;;;;;;15.11;94.95;101507.22;5052240;28;19925;-87
2021/07/18 04:05:53;;;;;;;0.17;0.17;;;;;;;15.02;95.29;101507.00;5031651;28;20056;-89
2021/07/18 04:08:27;;;;;;;0.20;0.20;;;;;;;15.00;95.49;101508.41;5045594;28;20052;-88
2021/07/18 04:10:57;;;;;;;0.20;0.20;;;;;;;15.08;95.02;101505.88;5031506;28;20048;-90
2021/07/18 04:13:30;;;;;;;0.20;0.20;;;;;;;15.14;94.82;101512.91;5059348;28;20040;-88
2021/07/18 04:16:07;;;;;;;0.20;0.20;;;;;;;15.27;94.97;101502.34;5035520;28;20049;-88
2021/07/18 04:18:37;;;;;;;0.17;0.17;;;;;;;15.27;94.68;101502.34;5034411;28;20046;-88
2021/07/18 04:21:10;;;;;;;0.10;0.10;;;;;;;15.34;94.82;101515.72;5046368;28;20044;-86
2021/07/18 04:23:44;;;;;;;0.13;0.13;;;;;;;15.42;94.78;101520.56;5058052;28;20057;-88
2021/07/18 04:26:18;;;;;;;0.10;0.10;;;;;;;15.43;94.45;101509.31;5053401;28;20045;-88
2021/07/18 04:28:55;;;;;;;0.10;0.10;;;;;;;15.35;94.73;101509.94;5035954;28;20056;-89
2021/07/18 04:31:29;;;;;;;0.25;0.20;;;;;;;15.33;95.19;101512.19;5026204;28;20426;-90
2021/07/18 04:33:57;;;;;;;0.20;0.20;;;;;;;15.37;94.53;101510.50;5043190;28;20049;-90
2021/07/18 04:36:30;;;;;;;0.20;0.20;;;;;;;15.37;94.66;101495.94;5051261;28;20435;-87
2021/07/18 04:39:03;;;;;;;0.20;0.20;;;;;;;15.44;94.94;101501.91;5032790;28;20053;-88
2021/07/18 04:41:40;;;;;;;0.20;0.20;;;;;;;15.46;93.91;101511.47;5041410;28;20377;-91
2021/07/18 04:44:11;;;;;;;0.20;0.20;;;;;;;15.50;93.88;101508.16;5054055;28;20071;-88
2021/07/18 04:46:44;;;;;;;0.20;0.20;;;;;;;15.61;93.73;101513.19;5024075;28;20057;-90
2021/07/18 04:49:17;;;;;;;0.20;0.20;;;;;;;15.64;93.85;101507.13;5046453;28;20045;-89
2021/07/18 04:51:51;;;;;;;0.20;0.20;;;;;;;15.71;93.93;101512.25;5034814;28;20565;-89
2021/07/18 04:54:19;;;;;;;0.10;0.10;;;;;;;15.67;93.88;101502.97;5046968;28;20059;-90
2021/07/18 04:56:54;;;;;;;0.20;0.20;;;;;;;15.74;93.05;101511.69;5016558;28;20052;-90
2021/07/18 04:59:27;;;;;;;0.20;0.20;;;;;;;15.87;92.61;101498.34;5027203;28;20056;-90
2021/07/18 05:02:05;;;;;;;0.20;0.20;;;;;;;15.94;92.67;101501.56;5048791;28;20060;-88
2021/07/18 05:05:25;;;;;;;0.20;0.20;;;;;;;16.00;92.56;101503.13;5034038;28;20083;-88
2021/07/18 05:08:00;;;;;;;0.20;0.20;;;;;;;15.97;92.16;101493.53;5053033;28;20037;-90
2021/07/18 05:10:29;;;;;;;0.20;0.20;;;;;;;16.13;92.14;101507.06;5051700;28;20477;-89
2021/07/18 05:13:04;;;;;;;0.20;0.20;;;;;;;16.25;91.12;101509.34;5037400;28;20394;-89
2021/07/18 05:15:39;;;;;;;0.13;0.13;;;;;;;16.35;90.62;101508.38;5053077;28;20405;-89
2021/07/18 05:18:14;;;;;;;0.20;0.20;;;;;;;16.47;89.77;101512.31;5038879;28;20043;-89
2021/07/18 05:20:44;;;;;;;0.20;0.20;;;;;;;16.28;90.41;101504.09;5042006;28;20044;-89
2021/07/18 05:23:17;;;;;;;0.10;0.10;;;;;;;17.15;87.32;101501.78;5024753;28;20053;-89
2021/07/18 05:25:50;;;;;;;0.20;0.20;;;;;;;16.98;87.96;101512.56;5051468;28;20049;-89
2021/07/18 05:28:25;;;;;;;0.20;0.20;;;;;;;17.24;87.04;101498.34;5030237;28;20048;-90
2021/07/18 05:30:59;;;;;;;0.15;0.15;;;;;;;18.00;82.99;101481.34;5031755;28;20041;-89
2021/07/18 05:33:32;;;;;;;0.20;0.20;;;;;;;18.73;80.29;101507.97;5028798;28;20056;-90
2021/07/18 05:36:08;;;;;;;0.20;0.20;;;;;;;19.21;78.05;101493.47;5041963;28;20045;-90
2021/07/18 05:38:41;;;;;;;0.20;0.20;;;;;;;19.57;77.21;101509.00;5022492;28;20052;-89
2021/07/18 05:41:15;;;;;;;0.20;0.20;;;;;;;19.66;75.88;101503.50;5032797;28;20429;-90
2021/07/18 05:43:51;;;;;;;0.35;0.20;;;;;;;19.58;76.50;101518.91;5034067;28;20045;-88
2021/07/18 05:46:25;;;;;;;0.20;0.20;;;;;;;18.77;79.41;101507.03;5045347;28;20501;-89
2021/07/18 05:48:58;;;;;;;0.10;0.10;;;;;;;18.59;80.99;101522.66;5026669;28;20390;-90
2021/07/18 05:51:31;;;;;;;0.10;0.10;;;;;;;18.19;81.49;101500.47;5031268;28;20371;-90
2021/07/18 05:54:05;;;;;;;0.10;0.10;;;;;;;18.18;81.79;101520.88;5015485;28;20061;-89
2021/07/18 05:56:33;;;;;;;0.20;0.20;;;;;;;18.01;82.18;101521.53;5045218;28;20061;-90
2021/07/18 05:59:08;;;;;;;0.10;0.10;;;;;;;18.26;83.05;101524.84;5039509;28;20041;-90
2021/07/18 06:01:41;;;;;;;0.10;0.10;;;;;;;18.18;82.33;101520.88;5026617;28;20040;-88
2021/07/18 06:04:16;;;;;;;0.20;0.20;;;;;;;18.18;81.84;101515.34;5020160;28;20057;-89
2021/07/18 06:06:45;;;;;;;0.10;0.10;;;;;;;18.48;82.30;101518.53;5046114;28;20050;-90
2021/07/18 06:09:18;;;;;;;0.20;0.20;;;;;;;18.62;82.51;101527.53;5019383;28;20060;-88
2021/07/18 06:11:52;;;;;;;0.10;0.10;;;;;;;18.60;80.84;101517.94;5014346;28;20049;-90
2021/07/18 06:14:30;;;;;;;0.20;0.20;;;;;;;18.46;80.93;101524.34;5042750;28;20049;-90
2021/07/18 06:16:58;;;;;;;0.13;0.13;;;;;;;18.57;81.69;101521.31;5027503;28;20052;-89
2021/07/18 06:19:31;;;;;;;0.20;0.20;;;;;;;18.32;80.11;101513.34;5040834;28;20041;-89
2021/07/18 06:22:01;;;;;;;0.10;0.10;;;;;;;18.42;80.30;101517.81;5021805;28;20060;-89
2021/07/18 06:24:35;;;;;;;0.10;0.10;;;;;;;18.73;80.58;101532.78;5043105;28;20064;-90
2021/07/18 06:27:04;;;;;;;0.10;0.10;;;;;;;18.76;80.17;101532.16;5017500;28;20053;-89
2021/07/18 06:29:39;;;;;;;0.10;0.10;;;;;;;18.94;79.78;101522.88;5024213;28;20056;-90
2021/07/18 06:32:12;;;;;;;0.20;0.20;;;;;;;19.12;80.38;101528.50;5029551;28;20053;-87
2021/07/18 06:34:46;;;;;;;0.10;0.10;;;;;;;18.90;77.98;101524.63;5045711;28;20052;-91
2021/07/18 06:37:19;;;;;;;0.10;0.10;;;;;;;18.97;77.24;101525.00;5040603;28;20508;-90
2021/07/18 06:39:47;;;;;;;0.10;0.10;;;;;;;19.04;77.95;101532.81;5036944;28;20037;-91
2021/07/18 06:42:16;;;;;;;0.10;0.10;;;;;;;19.15;77.22;101531.41;5019788;28;20045;-89
2021/07/18 06:44:50;;;;;;;0.20;0.20;;;;;;;19.27;77.93;101538.31;5042847;28;20044;-90
2021/07/18 06:47:24;;;;;;;0.10;0.10;;;;;;;19.32;75.81;101536.22;5048443;28;20068;-89
2021/07/18 06:49:52;;;;;;;0.10;0.10;;;;;;;19.19;75.09;101537.91;5028902;28;20072;-89
2021/07/18 06:52:21;;;;;;;0.13;0.13;;;;;;;19.38;77.33;101534.91;5032253;28;20049;-91
2021/07/18 06:54:49;;;;;;;0.10;0.10;;;;;;;19.41;77.30;101529.91;5044146;28;20063;-90
2021/07/18 06:57:23;;;;;;;0.10;0.10;;;;;;;19.14;74.91;101526.22;5040780;28;20045;-90
2021/07/18 06:59:53;;;;;;;0.20;0.20;;;;;;;19.35;75.55;101524.53;5049909;28;20045;-91
2021/07/18 07:02:21;;;;;;;0.20;0.20;;;;;;;19.23;73.51;101521.56;5028943;28;20501;-88
2021/07/18 07:04:54;;;;;;;0.13;0.13;;;;;;;19.41;74.30;101524.41;5049262;28;20049;-90
2021/07/18 07:07:22;;;;;;;0.20;0.20;;;;;;;19.34;74.54;101533.94;5025003;28;20417;-90
2021/07/18 07:09:51;;;;;;;0.17;0.17;;;;;;;19.66;80.20;101533.88;5047955;28;20044;-91
2021/07/18 07:12:24;;;;;;;0.10;0.10;;;;;;;19.71;73.22;101520.72;5020638;28;20514;-90
2021/07/18 07:15:00;;;;;;;0.20;0.20;;;;;;;19.98;72.78;101526.31;5040095;28;20052;-90
2021/07/18 07:17:34;;;;;;;0.20;0.20;;;;;;;20.01;73.59;101518.22;5045404;28;20045;-89
2021/07/18 07:20:09;;;;;;;0.13;0.13;;;;;;;19.92;71.48;101535.91;5041371;28;20046;-91
2021/07/18 07:22:43;;;;;;;0.10;0.10;;;;;;;19.94;72.96;101526.19;5042453;28;20041;-94
2021/07/18 07:25:17;;;;;;;0.20;0.20;;;;;;;20.13;71.65;101517.56;5026324;28;20073;-89
2021/07/18 07:27:46;;;;;;;0.10;0.10;;;;;;;19.95;70.19;101530.53;5029741;28;20056;-86
2021/07/18 07:30:18;;;;;;;0.10;0.10;;;;;;;20.21;71.59;101525.03;5042201;28;20044;-86
2021/07/18 07:32:47;;;;;;;0.20;0.20;;;;;;;20.14;69.54;101526.69;5022157;28;20045;-87
2021/07/18 07:35:24;;;;;;;0.10;0.10;;;;;;;19.99;68.44;101539.00;5034483;28;20056;-88
2021/07/18 07:38:00;;;;;;;0.20;0.20;;;;;;;20.30;72.24;101527.81;5029998;28;20057;-89
2021/07/18 07:40:36;;;;;;;;;;;;;;;20.46;69.17;101527.31;5037213;28;20045;-87
2021/07/18 07:43:10;;;;;;;0.10;0.10;;;;;;;20.26;67.31;101529.59;5039671;28;19929;-88
2021/07/18 07:45:45;;;;;;;0.20;0.20;;;;;;;20.17;68.96;101526.03;5048994;28;20044;-87
2021/07/18 07:48:22;;;;;;;0.10;0.10;;;;;;;20.22;68.27;101529.44;5033899;28;20056;-88
2021/07/18 07:50:57;;;;;;;0.20;0.20;;;;;;;20.25;69.34;101532.69;5036289;28;20045;-86
2021/07/18 07:53:30;;;;;;;0.20;0.20;;;;;;;20.62;70.97;101528.44;5050472;28;20397;-86
2021/07/18 07:56:04;;;;;;;0.10;0.10;;;;;;;20.50;70.00;101523.56;5040049;28;20124;-85
2021/07/18 07:58:37;;;;;;;0.10;0.10;;;;;;;20.57;68.84;101517.53;5043320;28;20057;-89
2021/07/18 08:01:12;;;;;;;0.20;0.20;;;;;;;20.64;70.11;101530.88;5028032;28;20060;-88
2021/07/18 08:03:40;;;;;;;0.20;0.20;;;;;;;20.83;67.86;101513.94;5030620;28;20049;-86
2021/07/18 08:06:14;;;;;;;0.17;0.17;;;;;;;20.72;68.38;101530.88;5049915;28;20048;-88
2021/07/18 08:08:49;;;;;;;0.10;0.10;;;;;;;20.64;67.85;101528.09;5052201;28;20501;-86
2021/07/18 08:11:22;;;;;;;0.10;0.10;;;;;;;20.27;68.43;101528.44;5045909;28;20406;-87
2021/07/18 08:13:52;;;;;;;0.30;0.10;;;;;;;20.66;68.29;101537.69;5044345;28;20052;-86
2021/07/18 08:16:27;;;;;;;0.20;0.20;;;;;;;20.63;68.71;101532.84;5051585;28;20053;-85
2021/07/18 08:19:01;;;;;;;0.10;0.10;;;;;;;20.56;66.64;101536.09;5044285;28;20041;-86
2021/07/18 08:21:38;;;;;;;0.10;0.10;;;;;;;20.67;67.70;101528.28;5027899;28;20052;-85
2021/07/18 08:24:13;;;;;;;0.10;0.10;;;;;;;20.97;66.64;101531.16;5047869;28;20426;-85
2021/07/18 08:26:47;;;;;;;0.10;0.10;;;;;;;21.26;68.08;101539.84;5024119;28;20057;-88
2021/07/18 08:29:24;;;;;;;0.20;0.20;;;;;;;21.10;67.08;101540.41;5025371;28;20056;-85
2021/07/18 08:31:58;;;;;;;;;;;;;;;21.14;67.18;101546.06;5025675;28;20056;-84
2021/07/18 08:34:32;;;;;;;0.10;0.10;;;;;;;21.35;66.25;101526.75;5040905;28;20368;-87
2021/07/18 08:37:01;;;;;;;0.20;0.20;;;;;;;21.44;67.68;101540.59;5043546;28;20052;-85
2021/07/18 08:39:29;;;;;;;0.10;0.10;;;;;;;21.41;65.45;101531.78;5036687;28;20594;-84
2021/07/18 08:42:07;;;;;;;0.10;0.10;;;;;;;21.33;65.40;101529.88;5042110;28;20048;-85
2021/07/18 08:44:38;;;;;;;0.10;0.10;;;;;;;21.44;67.25;101529.50;5029344;28;20044;-85
2021/07/18 08:47:12;;;;;;;0.20;0.20;;;;;;;21.44;66.93;101504.59;5049753;28;20044;-85
2021/07/18 08:49:46;;;;;;;0.20;0.20;;;;;;;21.74;66.08;101508.19;5044120;28;20048;-84
2021/07/18 08:52:20;;;;;;;0.20;0.20;;;;;;;21.59;65.05;101501.28;5021599;28;20061;-86
2021/07/18 08:54:50;;;;;;;0.10;0.10;;;;;;;21.96;67.21;101512.59;5022616;28;20492;-86
2021/07/18 08:57:26;;;;;;;0.10;0.10;;;;;;;22.12;64.17;101520.28;5029751;28;20071;-86
2021/07/18 09:00:01;;;;;;;0.10;0.10;;;;;;;21.99;63.72;101503.59;5026120;28;20060;-85
2021/07/18 09:02:36;;;;;;;0.10;0.10;;;;;;;22.13;65.62;101510.84;5024566;28;20060;-86
2021/07/18 09:05:11;;;;;;;0.20;0.20;;;;;;;22.05;65.85;101504.19;5029749;28;20057;-86
2021/07/18 09:07:47;;;;;;;0.10;0.10;;;;;;;22.19;64.00;101513.06;5026813;28;20057;-86
2021/07/18 09:10:30;;;;;;;0.20;0.20;;;;;;;22.48;63.23;101503.03;5046210;28;20052;-86
2021/07/18 09:13:10;;;;;;;0.10;0.10;;;;;;;22.42;62.86;101512.72;5046086;28;20053;-89
2021/07/18 09:15:44;;;;;;;0.10;0.10;;;;;;;22.27;64.26;101508.59;5049486;28;20052;-85
2021/07/18 09:18:17;;;;;;;0.10;0.10;;;;;;;22.70;64.61;101515.72;5039654;28;20045;-85
2021/07/18 09:20:52;;;;;;;0.10;0.10;;;;;;;22.78;61.41;101496.53;5046717;28;20041;-85
2021/07/18 09:23:25;;;;;;;0.10;0.10;;;;;;;22.31;63.03;101501.19;5042790;28;21723;-86
2021/07/18 09:26:17;;;;;;;0.10;0.10;;;;;;;22.07;63.63;101502.72;5038927;28;20810;-86
2021/07/18 09:28:51;;;;;;;0.10;0.10;;;;;;;22.07;63.29;101501.91;5044026;28;20049;-87
2021/07/18 09:31:29;;;;;;;0.10;0.10;;;;;;;22.05;65.33;101496.72;5045407;28;20051;-86
2021/07/18 09:34:14;;;;;;;0.20;0.20;;;;;;;21.57;65.52;101495.25;5023117;28;20052;-85
2021/07/18 09:36:50;;;;;;;0.20;0.20;;;;;;;22.01;62.92;101495.78;5038406;28;20053;-87
2021/07/18 09:39:28;;;;;;;0.10;0.10;;;;;;;22.73;63.17;101505.88;5022420;28;20520;-86
2021/07/18 09:41:57;;;;;;;0.10;0.10;;;;;;;22.91;62.80;101501.78;5043492;28;20047;-85
2021/07/18 09:44:41;;;;;;;0.10;0.10;;;;;;;22.80;62.06;101510.88;5043245;28;20613;-86
2021/07/18 09:47:15;;;;;;;0.10;0.10;;;;;;;22.95;62.22;101507.41;5024180;28;20060;-86
2021/07/18 09:49:50;;;;;;;0.10;0.10;;;;;;;22.74;65.30;101513.88;5042998;28;20044;-85
2021/07/18 09:52:27;;;;;;;0.10;0.10;;;;;;;22.50;64.47;101509.06;5023140;28;20048;-85
2021/07/18 09:55:00;;;;;;;0.20;0.20;;;;;;;22.48;64.02;101511.34;5028232;28;20053;-87
2021/07/18 09:57:37;;;;;;;0.10;0.10;;;;;;;22.46;62.61;101505.34;5022301;28;20064;-86
2021/07/18 10:00:12;;;;;;;0.13;0.13;;;;;;;22.77;60.57;101504.03;5044778;28;20048;-85
2021/07/18 10:02:46;;;;;;;0.10;0.10;;;;;;;22.82;63.23;101497.47;5048386;28;20497;-86
2021/07/18 10:05:29;;;;;;;0.20;0.20;;;;;;;22.40;63.00;101492.84;5025376;28;20401;-85
2021/07/18 10:08:06;;;;;;;0.10;0.10;;;;;;;22.44;63.41;101498.50;5028297;28;20045;-85
2021/07/18 10:10:41;;;;;;;0.10;0.10;;;;;;;22.95;62.04;101506.63;5025818;28;20056;-85
2021/07/18 10:13:15;;;;;;;0.10;0.10;;;;;;;22.95;59.61;101492.75;5046303;28;20060;-87
2021/07/18 10:15:43;;;;;;;0.10;0.10;;;;;;;22.87;59.88;101486.97;5029125;28;20056;-86
2021/07/18 10:18:12;;;;;;;0.10;0.10;;;;;;;23.02;60.36;101493.81;5029883;28;21343;-86
2021/07/18 10:21:13;;;;;;;0.20;0.20;;;;;;;22.88;61.77;101488.59;5042243;28;20610;-86
2021/07/18 10:23:49;;;;;;;0.10;0.10;;;;;;;22.91;60.22;101481.50;5020894;28;20052;-86
2021/07/18 10:26:26;;;;;;;0.20;0.20;;;;;;;22.77;61.12;101473.50;5020812;28;20056;-86
2021/07/18 10:28:59;;;;;;;0.17;0.17;;;;;;;23.04;61.22;101485.13;5023240;28;20052;-86
2021/07/18 10:31:30;;;;;;;0.15;0.15;;;;;;;23.05;58.49;101478.44;5042919;28;20795;-87
2021/07/18 10:34:09;;;;;;;;;;;;;;;22.87;58.42;101478.63;5003971;28;20064;-86
2021/07/18 10:37:11;;;;;;;0.10;0.10;;;;;;;23.19;59.77;101473.38;5025772;28;20284;-86
2021/07/18 10:39:45;;;;;;;0.10;0.10;;;;;;;23.54;60.56;101472.06;5044328;28;20056;-86
2021/07/18 10:42:33;;;;;;;0.10;0.10;;;;;;;23.34;59.09;101471.84;5023947;28;21358;-85
2021/07/18 10:45:19;;;;;;;0.10;0.10;;;;;;;23.53;58.57;101462.09;5020614;28;20064;-87
2021/07/18 10:48:00;;;;;;;0.10;0.10;;;;;;;23.44;59.28;101476.13;5041303;28;20044;-87
2021/07/18 10:50:49;;;;;;;0.10;0.10;;;;;;;23.57;59.66;101469.41;5021816;28;20060;-87
2021/07/18 10:53:52;;;;;;;0.10;0.10;;;;;;;23.38;58.53;101469.19;5050090;28;20053;-87
2021/07/18 10:56:41;;;;;;;0.10;0.10;;;;;;;23.60;58.13;101467.88;5023886;28;21722;-86
2021/07/18 10:59:31;;;;;;;0.10;0.10;;;;;;;23.80;58.79;101465.31;5050450;28;20057;-87
2021/07/18 11:02:11;;;;;;;0.10;0.10;;;;;;;24.07;56.21;101466.50;5019781;28;20049;-87
2021/07/18 11:04:49;;;;;;;0.10;0.10;;;;;;;23.58;58.54;101468.22;5044110;28;20052;-87
2021/07/18 11:07:30;;;;;;;0.10;0.10;;;;;;;23.21;59.12;101470.22;5041781;28;20124;-87
2021/07/18 11:10:20;;;;;;;0.10;0.10;;;;;;;23.30;59.77;101481.22;5026514;28;20052;-88
2021/07/18 11:13:01;;;;;;;0.10;0.10;;;;;;;23.12;57.49;101458.41;5022068;28;20074;-87
2021/07/18 11:15:39;;;;;;;0.10;0.10;;;;;;;23.29;58.80;101460.97;5029241;28;20057;-87
2021/07/18 11:18:14;;;;;;;0.10;0.10;;;;;;;23.54;60.33;101444.28;5040402;28;20053;-87
2021/07/18 11:20:58;;;;;;;0.20;0.20;;;;;;;23.26;57.30;101451.38;5039441;28;20045;-85
2021/07/18 11:23:29;;;;;;;0.10;0.10;;;;;;;23.02;61.09;101454.94;5044727;28;20045;-86
2021/07/18 11:26:16;;;;;;;0.10;0.10;;;;;;;23.59;60.50;101450.41;5044326;28;20067;-87
2021/07/18 11:29:01;;;;;;;0.10;0.10;;;;;;;23.96;56.89;101438.41;5024847;28;20048;-87
2021/07/18 11:31:42;;;;;;;0.10;0.10;;;;;;;23.81;55.79;101445.50;5027896;28;20055;-87
2021/07/18 11:34:20;;;;;;;0.10;0.10;;;;;;;23.53;57.68;101424.03;4998406;28;20629;-87
2021/07/18 11:37:04;;;;;;;0.15;0.15;;;;;;;23.10;57.19;101408.78;5024366;28;20063;-85
2021/07/18 11:39:35;;;;;;;0.20;0.20;;;;;;;23.37;59.36;101431.47;5023581;28;20053;-86
2021/07/18 11:42:13;;;;;;;0.10;0.10;;;;;;;23.70;60.21;101409.06;5044036;28;20076;-87
2021/07/18 11:44:45;;;;;;;0.20;0.20;;;;;;;23.78;57.42;101419.22;5028119;28;20421;-87
2021/07/18 11:47:16;;;;;;;0.10;0.10;;;;;;;23.85;57.97;101424.19;5031336;28;20053;-88
2021/07/18 11:49:52;;;;;;;0.20;0.10;;;;;;;23.99;53.85;101414.63;5049090;28;20813;-88
2021/07/18 11:52:26;;;;;;;0.10;0.10;;;;;;;24.05;55.92;101424.34;5027549;28;20056;-89
2021/07/18 11:55:00;;;;;;;0.10;0.10;;;;;;;23.80;57.70;101412.50;5026812;28;20056;-87
2021/07/18 11:57:41;;;;;;;0.10;0.10;;;;;;;23.42;59.75;101417.31;5030035;28;20052;-87
2021/07/18 12:00:16;;;;;;;0.17;0.17;;;;;;;23.99;56.60;101412.69;5026504;28;20408;-87
2021/07/18 12:02:46;;;;;;;0.20;0.20;;;;;;;23.94;58.53;101415.72;5031925;28;20056;-88